sensor_id;sensor_type;location;lat;lon;timestamp;pressure;altitude;pressure_sealevel;temperature;humidity
15529;BME280;7866;52.280;9.500;2023-03-21T00:01:34;100386.84;;;8.60;89.15
15529;BME280;7866;52.280;9.500;2023-03-21T00:06:36;100381.41;;;8.70;90.96
15529;BME280;7866;52.280;9.500;2023-03-21T00:11:38;100380.03;;;8.66;90.19
15529;BME280;7866;52.280;9.500;2023-03-21T00:16:41;100383.56;;;8.66;90.95
15529;BME280;7866;52.280;9.500;2023-03-21T00:21:45;100379.53;;;8.62;91.14
15529;BME280;7866;52.280;9.500;2023-03-21T00:26:46;100371.19;;;8.65;92.17
15529;BME280;7866;52.280;9.500;2023-03-21T00:31:49;100365.38;;;8.70;92.04
15529;BME280;7866;52.280;9.500;2023-03-21T00:41:54;100355.88;;;8.67;92.80
15529;BME280;7866;52.280;9.500;2023-03-21T00:46:57;100354.38;;;8.73;94.11
15529;BME280;7866;52.280;9.500;2023-03-21T00:52:04;100345.84;;;8.69;93.24
15529;BME280;7866;52.280;9.500;2023-03-21T00:57:06;100346.56;;;8.71;94.08
15529;BME280;7866;52.280;9.500;2023-03-21T01:02:09;100338.38;;;8.73;94.09
15529;BME280;7866;52.280;9.500;2023-03-21T01:07:21;100338.38;;;8.73;95.10
15529;BME280;7866;52.280;9.500;2023-03-21T01:12:23;100332.06;;;8.74;95.66
15529;BME280;7866;52.280;9.500;2023-03-21T01:17:26;100346.25;;;8.74;95.58
15529;BME280;7866;52.280;9.500;2023-03-21T01:22:27;100336.59;;;8.81;94.67
15529;BME280;7866;52.280;9.500;2023-03-21T01:27:29;100334.44;;;8.85;94.57
15529;BME280;7866;52.280;9.500;2023-03-21T01:32:32;100325.53;;;8.76;93.92
15529;BME280;7866;52.280;9.500;2023-03-21T01:37:34;100333.06;;;8.81;94.64
15529;BME280;7866;52.280;9.500;2023-03-21T01:42:35;100330.09;;;8.84;94.45
15529;BME280;7866;52.280;9.500;2023-03-21T01:47:38;100313.41;;;8.82;94.62
15529;BME280;7866;52.280;9.500;2023-03-21T01:52:40;100309.75;;;8.83;94.65
15529;BME280;7866;52.280;9.500;2023-03-21T01:57:45;100308.44;;;8.87;94.86
15529;BME280;7866;52.280;9.500;2023-03-21T02:02:49;100309.75;;;8.83;93.14
15529;BME280;7866;52.280;9.500;2023-03-21T02:07:54;100306.75;;;8.86;93.22
15529;BME280;7866;52.280;9.500;2023-03-21T02:12:57;100307.41;;;8.88;92.54
15529;BME280;7866;52.280;9.500;2023-03-21T02:18:13;100309.75;;;8.83;94.54
15529;BME280;7866;52.280;9.500;2023-03-21T02:28:59;100301.72;;;8.83;95.63
15529;BME280;7866;52.280;9.500;2023-03-21T02:39:55;100292.38;;;8.79;95.96
15529;BME280;7866;52.280;9.500;2023-03-21T02:45:04;100287.03;;;8.79;95.62
15529;BME280;7866;52.280;9.500;2023-03-21T02:50:11;100279.84;;;8.79;94.72
15529;BME280;7866;52.280;9.500;2023-03-21T02:55:21;100283.03;;;8.83;95.78
15529;BME280;7866;52.280;9.500;2023-03-21T03:00:27;100279.06;;;8.87;95.87
15529;BME280;7866;52.280;9.500;2023-03-21T03:05:33;100286.84;;;8.80;96.06
15529;BME280;7866;52.280;9.500;2023-03-21T03:10:44;100277.00;;;8.81;95.54
15529;BME280;7866;52.280;9.500;2023-03-21T03:15:55;100273.00;;;8.85;96.31
15529;BME280;7866;52.280;9.500;2023-03-21T03:21:06;100250.66;;;8.78;96.47
15529;BME280;7866;52.280;9.500;2023-03-21T03:26:15;100270.00;;;8.80;96.70
15529;BME280;7866;52.280;9.500;2023-03-21T03:31:20;100262.69;;;8.82;97.64
15529;BME280;7866;52.280;9.500;2023-03-21T03:36:27;100272.50;;;8.81;96.78
15529;BME280;7866;52.280;9.500;2023-03-21T03:41:36;100269.81;;;8.81;95.24
15529;BME280;7866;52.280;9.500;2023-03-21T03:46:44;100271.19;;;8.85;97.25
15529;BME280;7866;52.280;9.500;2023-03-21T03:51:51;100268.84;;;8.82;97.21
15529;BME280;7866;52.280;9.500;2023-03-21T03:56:56;100265.69;;;8.87;96.84
15529;BME280;7866;52.280;9.500;2023-03-21T04:01:58;100266.34;;;8.89;96.96
15529;BME280;7866;52.280;9.500;2023-03-21T04:07:00;100266.75;;;8.94;96.66
15529;BME280;7866;52.280;9.500;2023-03-21T04:12:04;100265.03;;;8.93;95.92
15529;BME280;7866;52.280;9.500;2023-03-21T04:17:05;100267.56;;;8.95;94.38
15529;BME280;7866;52.280;9.500;2023-03-21T04:22:07;100260.22;;;8.97;95.08
15529;BME280;7866;52.280;9.500;2023-03-21T04:27:10;100263.59;;;8.99;94.47
15529;BME280;7866;52.280;9.500;2023-03-21T04:32:12;100260.72;;;9.00;94.17
15529;BME280;7866;52.280;9.500;2023-03-21T04:37:17;100259.72;;;9.01;95.00
15529;BME280;7866;52.280;9.500;2023-03-21T04:42:20;100251.72;;;9.01;95.64
15529;BME280;7866;52.280;9.500;2023-03-21T04:47:21;100255.41;;;9.00;96.77
15529;BME280;7866;52.280;9.500;2023-03-21T04:52:23;100252.06;;;8.98;95.98
15529;BME280;7866;52.280;9.500;2023-03-21T04:57:26;100241.44;;;9.15;94.62
15529;BME280;7866;52.280;9.500;2023-03-21T05:02:28;100243.72;;;9.09;93.66
15529;BME280;7866;52.280;9.500;2023-03-21T05:07:29;100243.59;;;9.11;94.07
15529;BME280;7866;52.280;9.500;2023-03-21T05:12:33;100233.41;;;9.06;94.60
15529;BME280;7866;52.280;9.500;2023-03-21T05:17:34;100234.56;;;9.12;94.84
15529;BME280;7866;52.280;9.500;2023-03-21T05:22:36;100237.25;;;9.12;95.00
15529;BME280;7866;52.280;9.500;2023-03-21T05:27:41;100233.53;;;9.05;92.47
15529;BME280;7866;52.280;9.500;2023-03-21T05:32:44;100227.69;;;9.09;93.41
15529;BME280;7866;52.280;9.500;2023-03-21T05:37:46;100229.41;;;9.10;94.31
15529;BME280;7866;52.280;9.500;2023-03-21T05:42:49;100227.75;;;9.18;93.91
15529;BME280;7866;52.280;9.500;2023-03-21T05:47:50;100224.22;;;9.17;94.16
15529;BME280;7866;52.280;9.500;2023-03-21T05:52:52;100229.94;;;9.22;94.04
15529;BME280;7866;52.280;9.500;2023-03-21T05:57:55;100236.78;;;9.25;93.89
15529;BME280;7866;52.280;9.500;2023-03-21T06:02:56;100237.59;;;9.25;92.85
15529;BME280;7866;52.280;9.500;2023-03-21T06:07:58;100230.78;;;9.31;92.30
15529;BME280;7866;52.280;9.500;2023-03-21T06:13:01;100221.75;;;9.32;92.59
15529;BME280;7866;52.280;9.500;2023-03-21T06:18:04;100238.47;;;9.34;92.36
15529;BME280;7866;52.280;9.500;2023-03-21T06:23:05;100228.13;;;9.39;92.27
15529;BME280;7866;52.280;9.500;2023-03-21T06:28:08;100231.81;;;9.38;92.42
15529;BME280;7866;52.280;9.500;2023-03-21T06:33:10;100226.97;;;9.42;92.28
15529;BME280;7866;52.280;9.500;2023-03-21T06:38:11;100219.81;;;9.50;92.22
15529;BME280;7866;52.280;9.500;2023-03-21T06:43:15;100219.31;;;9.55;91.35
15529;BME280;7866;52.280;9.500;2023-03-21T06:48:16;100230.19;;;9.61;91.02
15529;BME280;7866;52.280;9.500;2023-03-21T06:53:19;100233.31;;;9.65;90.34
15529;BME280;7866;52.280;9.500;2023-03-21T06:58:24;100233.00;;;9.76;89.54
15529;BME280;7866;52.280;9.500;2023-03-21T07:03:27;100241.34;;;9.73;90.02
15529;BME280;7866;52.280;9.500;2023-03-21T07:08:28;100234.03;;;9.75;90.07
15529;BME280;7866;52.280;9.500;2023-03-21T07:13:32;100232.19;;;9.76;89.54
15529;BME280;7866;52.280;9.500;2023-03-21T07:18:33;100229.19;;;9.79;89.58
15529;BME280;7866;52.280;9.500;2023-03-21T07:23:36;100227.34;;;9.87;88.85
15529;BME280;7866;52.280;9.500;2023-03-21T07:28:39;100230.84;;;9.96;89.38
15529;BME280;7866;52.280;9.500;2023-03-21T07:33:41;100225.34;;;10.06;88.11
15529;BME280;7866;52.280;9.500;2023-03-21T07:38:43;100223.16;;;10.09;88.41
15529;BME280;7866;52.280;9.500;2023-03-21T07:43:46;100224.28;;;10.23;87.96
15529;BME280;7866;52.280;9.500;2023-03-21T07:48:48;100232.00;;;10.34;87.39
15529;BME280;7866;52.280;9.500;2023-03-21T07:53:50;100227.97;;;10.39;86.72
15529;BME280;7866;52.280;9.500;2023-03-21T07:58:53;100238.16;;;10.51;86.54
15529;BME280;7866;52.280;9.500;2023-03-21T08:03:54;100232.97;;;10.50;86.62
15529;BME280;7866;52.280;9.500;2023-03-21T08:08:56;100232.94;;;10.66;86.95
15529;BME280;7866;52.280;9.500;2023-03-21T08:14:00;100231.38;;;10.80;85.75
15529;BME280;7866;52.280;9.500;2023-03-21T08:19:01;100235.25;;;10.77;85.81
15529;BME280;7866;52.280;9.500;2023-03-21T08:24:03;100235.66;;;10.97;85.10
15529;BME280;7866;52.280;9.500;2023-03-21T08:29:07;100230.91;;;11.07;84.58
15529;BME280;7866;52.280;9.500;2023-03-21T08:34:09;100245.88;;;11.25;84.09
15529;BME280;7866;52.280;9.500;2023-03-21T08:39:12;100237.34;;;11.29;83.99
15529;BME280;7866;52.280;9.500;2023-03-21T08:44:15;100237.25;;;11.46;83.92
15529;BME280;7866;52.280;9.500;2023-03-21T08:49:17;100231.94;;;11.38;82.70
15529;BME280;7866;52.280;9.500;2023-03-21T08:54:20;100235.81;;;11.58;82.57
15529;BME280;7866;52.280;9.500;2023-03-21T08:59:23;100228.50;;;11.98;81.69
15529;BME280;7866;52.280;9.500;2023-03-21T09:04:25;100237.75;;;12.33;81.44
15529;BME280;7866;52.280;9.500;2023-03-21T09:09:27;100227.25;;;12.23;79.48
15529;BME280;7866;52.280;9.500;2023-03-21T09:14:30;100226.50;;;12.15;80.55
15529;BME280;7866;52.280;9.500;2023-03-21T09:19:32;100233.38;;;12.32;79.60
15529;BME280;7866;52.280;9.500;2023-03-21T09:24:34;100224.88;;;12.58;79.23
15529;BME280;7866;52.280;9.500;2023-03-21T09:29:37;100225.81;;;12.65;78.63
15529;BME280;7866;52.280;9.500;2023-03-21T09:34:38;100221.94;;;12.53;79.10
15529;BME280;7866;52.280;9.500;2023-03-21T09:39:41;100237.00;;;12.39;78.90
15529;BME280;7866;52.280;9.500;2023-03-21T09:44:58;100236.88;;;12.32;80.28
15529;BME280;7866;52.280;9.500;2023-03-21T09:50:09;100235.66;;;12.05;80.52
15529;BME280;7866;52.280;9.500;2023-03-21T09:55:19;100232.34;;;12.18;80.25
15529;BME280;7866;52.280;9.500;2023-03-21T10:00:26;100221.31;;;12.13;80.05
15529;BME280;7866;52.280;9.500;2023-03-21T10:05:30;100230.59;;;12.40;78.68
15529;BME280;7866;52.280;9.500;2023-03-21T10:10:35;100223.75;;;12.52;78.92
15529;BME280;7866;52.280;9.500;2023-03-21T10:15:39;100222.56;;;12.70;78.28
15529;BME280;7866;52.280;9.500;2023-03-21T10:20:41;100224.97;;;12.35;78.33
15529;BME280;7866;52.280;9.500;2023-03-21T10:25:45;100222.34;;;12.27;79.03
15529;BME280;7866;52.280;9.500;2023-03-21T10:30:52;100219.38;;;12.37;79.42
15529;BME280;7866;52.280;9.500;2023-03-21T10:35:55;100211.03;;;12.17;80.83
15529;BME280;7866;52.280;9.500;2023-03-21T10:40:59;100217.63;;;12.14;81.06
15529;BME280;7866;52.280;9.500;2023-03-21T10:46:11;100206.13;;;12.20;81.46
15529;BME280;7866;52.280;9.500;2023-03-21T10:51:18;100209.69;;;12.21;81.85
15529;BME280;7866;52.280;9.500;2023-03-21T10:56:23;100211.41;;;12.14;82.75
15529;BME280;7866;52.280;9.500;2023-03-21T11:01:34;100203.28;;;12.22;83.25
15529;BME280;7866;52.280;9.500;2023-03-21T11:06:38;100201.66;;;12.13;83.94
15529;BME280;7866;52.280;9.500;2023-03-21T11:11:48;100206.22;;;12.12;84.31
15529;BME280;7866;52.280;9.500;2023-03-21T11:16:52;100204.16;;;11.76;85.40
15529;BME280;7866;52.280;9.500;2023-03-21T11:21:55;100203.94;;;11.86;86.00
15529;BME280;7866;52.280;9.500;2023-03-21T11:26:58;100197.59;;;11.79;87.28
15529;BME280;7866;52.280;9.500;2023-03-21T11:32:10;100199.03;;;11.67;87.54
15529;BME280;7866;52.280;9.500;2023-03-21T11:37:18;100191.19;;;11.65;87.85
15529;BME280;7866;52.280;9.500;2023-03-21T11:42:26;100195.53;;;11.89;87.94
15529;BME280;7866;52.280;9.500;2023-03-21T11:47:29;100184.84;;;11.81;86.66
15529;BME280;7866;52.280;9.500;2023-03-21T11:52:37;100192.38;;;11.86;87.31
15529;BME280;7866;52.280;9.500;2023-03-21T11:57:47;100178.19;;;12.15;86.72
15529;BME280;7866;52.280;9.500;2023-03-21T12:03:10;100174.91;;;12.04;86.55
15529;BME280;7866;52.280;9.500;2023-03-21T12:08:31;100161.41;;;12.13;87.41
15529;BME280;7866;52.280;9.500;2023-03-21T12:13:46;100159.94;;;12.10;88.16
15529;BME280;7866;52.280;9.500;2023-03-21T12:19:00;100160.69;;;12.19;86.91
15529;BME280;7866;52.280;9.500;2023-03-21T12:24:06;100150.41;;;12.22;86.70
15529;BME280;7866;52.280;9.500;2023-03-21T12:29:30;100140.31;;;12.10;86.73
15529;BME280;7866;52.280;9.500;2023-03-21T12:34:48;100143.47;;;12.13;88.28
15529;BME280;7866;52.280;9.500;2023-03-21T12:39:58;100130.69;;;12.15;87.59
15529;BME280;7866;52.280;9.500;2023-03-21T12:45:10;100122.06;;;12.20;87.33
15529;BME280;7866;52.280;9.500;2023-03-21T12:50:17;100123.47;;;12.16;87.70
15529;BME280;7866;52.280;9.500;2023-03-21T12:55:24;100111.78;;;12.08;88.20
15529;BME280;7866;52.280;9.500;2023-03-21T13:00:31;100112.53;;;12.02;87.84
15529;BME280;7866;52.280;9.500;2023-03-21T13:05:38;100106.59;;;11.92;88.19
15529;BME280;7866;52.280;9.500;2023-03-21T13:10:43;100102.06;;;11.93;88.17
15529;BME280;7866;52.280;9.500;2023-03-21T13:16:07;100094.94;;;11.85;88.35
15529;BME280;7866;52.280;9.500;2023-03-21T13:21:14;100085.53;;;11.66;89.56
15529;BME280;7866;52.280;9.500;2023-03-21T13:26:18;100086.28;;;11.75;89.88
15529;BME280;7866;52.280;9.500;2023-03-21T13:31:24;100072.75;;;11.53;90.05
15529;BME280;7866;52.280;9.500;2023-03-21T13:36:29;100081.88;;;11.44;90.80
15529;BME280;7866;52.280;9.500;2023-03-21T13:41:34;100072.28;;;11.50;90.94
15529;BME280;7866;52.280;9.500;2023-03-21T13:46:44;100079.50;;;11.49;90.92
15529;BME280;7866;52.280;9.500;2023-03-21T13:51:50;100067.97;;;11.64;90.86
15529;BME280;7866;52.280;9.500;2023-03-21T13:56:54;100059.91;;;11.64;90.88
15529;BME280;7866;52.280;9.500;2023-03-21T14:01:58;100055.69;;;11.69;90.95
15529;BME280;7866;52.280;9.500;2023-03-21T14:07:05;100053.16;;;11.68;90.38
15529;BME280;7866;52.280;9.500;2023-03-21T14:12:12;100045.59;;;11.71;90.38
15529;BME280;7866;52.280;9.500;2023-03-21T14:17:21;100045.78;;;11.70;90.53
15529;BME280;7866;52.280;9.500;2023-03-21T14:22:24;100041.88;;;11.72;91.20
15529;BME280;7866;52.280;9.500;2023-03-21T14:27:29;100040.91;;;11.88;90.43
15529;BME280;7866;52.280;9.500;2023-03-21T14:32:31;100037.22;;;11.89;90.36
15529;BME280;7866;52.280;9.500;2023-03-21T14:37:38;100021.94;;;11.90;89.97
15529;BME280;7866;52.280;9.500;2023-03-21T14:42:45;100025.72;;;11.95;89.45
15529;BME280;7866;52.280;9.500;2023-03-21T14:47:55;100011.22;;;11.90;89.91
15529;BME280;7866;52.280;9.500;2023-03-21T14:52:58;100014.78;;;11.97;90.35
15529;BME280;7866;52.280;9.500;2023-03-21T14:58:00;100003.88;;;11.98;90.07
15529;BME280;7866;52.280;9.500;2023-03-21T15:03:02;100004.25;;;11.95;89.57
15529;BME280;7866;52.280;9.500;2023-03-21T15:08:12;99990.94;;;11.87;89.89
15529;BME280;7866;52.280;9.500;2023-03-21T15:13:17;99980.56;;;11.84;90.34
15529;BME280;7866;52.280;9.500;2023-03-21T15:18:24;99984.34;;;11.75;89.74
15529;BME280;7866;52.280;9.500;2023-03-21T15:23:30;99970.66;;;11.70;89.73
15529;BME280;7866;52.280;9.500;2023-03-21T15:28:35;99962.97;;;11.67;89.76
15529;BME280;7866;52.280;9.500;2023-03-21T15:33:36;99956.22;;;11.71;90.29
15529;BME280;7866;52.280;9.500;2023-03-21T15:38:41;99955.84;;;11.59;90.87
15529;BME280;7866;52.280;9.500;2023-03-21T15:43:44;99937.19;;;11.66;90.68
15529;BME280;7866;52.280;9.500;2023-03-21T15:48:46;99928.56;;;11.55;90.15
15529;BME280;7866;52.280;9.500;2023-03-21T15:53:50;99917.84;;;11.55;90.45
15529;BME280;7866;52.280;9.500;2023-03-21T15:58:53;99899.63;;;11.51;90.92
15529;BME280;7866;52.280;9.500;2023-03-21T16:04:01;99889.94;;;11.50;90.67
15529;BME280;7866;52.280;9.500;2023-03-21T16:09:12;99889.94;;;11.50;91.38
15529;BME280;7866;52.280;9.500;2023-03-21T16:14:23;99879.94;;;11.44;91.98
15529;BME280;7866;52.280;9.500;2023-03-21T16:19:27;99910.66;;;11.41;92.43
15529;BME280;7866;52.280;9.500;2023-03-21T16:24:30;99902.22;;;11.44;91.76
15529;BME280;7866;52.280;9.500;2023-03-21T16:29:32;99908.03;;;11.48;92.12
15529;BME280;7866;52.280;9.500;2023-03-21T16:34:34;99895.94;;;11.52;91.46
15529;BME280;7866;52.280;9.500;2023-03-21T16:39:37;99895.47;;;11.48;91.70
15529;BME280;7866;52.280;9.500;2023-03-21T16:44:39;99889.75;;;11.51;91.28
15529;BME280;7866;52.280;9.500;2023-03-21T16:49:40;99884.75;;;11.48;90.37
15529;BME280;7866;52.280;9.500;2023-03-21T16:54:43;99882.97;;;11.55;90.89
15529;BME280;7866;52.280;9.500;2023-03-21T16:59:45;99869.13;;;11.52;90.89
15529;BME280;7866;52.280;9.500;2023-03-21T17:04:46;99888.09;;;11.50;89.81
15529;BME280;7866;52.280;9.500;2023-03-21T17:09:49;99893.72;;;11.55;89.71
15529;BME280;7866;52.280;9.500;2023-03-21T17:14:51;99881.31;;;11.54;89.42
15529;BME280;7866;52.280;9.500;2023-03-21T17:19:53;99886.03;;;11.52;89.50
15529;BME280;7866;52.280;9.500;2023-03-21T17:24:55;99887.78;;;11.60;89.19
15529;BME280;7866;52.280;9.500;2023-03-21T17:29:58;99891.75;;;11.64;88.30
15529;BME280;7866;52.280;9.500;2023-03-21T17:34:59;99902.31;;;11.66;88.13
15529;BME280;7866;52.280;9.500;2023-03-21T17:40:03;99892.97;;;11.62;87.77
15529;BME280;7866;52.280;9.500;2023-03-21T17:45:07;99902.13;;;11.52;88.10
15529;BME280;7866;52.280;9.500;2023-03-21T17:50:15;99907.41;;;11.46;88.60
15529;BME280;7866;52.280;9.500;2023-03-21T17:55:18;99910.47;;;11.43;87.86
15529;BME280;7866;52.280;9.500;2023-03-21T18:00:22;99908.06;;;11.33;88.58
15529;BME280;7866;52.280;9.500;2023-03-21T18:05:25;99905.91;;;11.28;88.96
15529;BME280;7866;52.280;9.500;2023-03-21T18:10:28;99903.44;;;11.27;88.32
15529;BME280;7866;52.280;9.500;2023-03-21T18:15:30;99900.47;;;11.22;88.92
15529;BME280;7866;52.280;9.500;2023-03-21T18:20:32;99907.84;;;11.20;88.02
15529;BME280;7866;52.280;9.500;2023-03-21T18:25:35;99915.03;;;11.04;89.57
15529;BME280;7866;52.280;9.500;2023-03-21T18:30:37;99927.53;;;11.12;89.06
15529;BME280;7866;52.280;9.500;2023-03-21T18:35:38;99918.38;;;11.06;88.61
15529;BME280;7866;52.280;9.500;2023-03-21T18:40:41;99932.34;;;11.02;89.00
15529;BME280;7866;52.280;9.500;2023-03-21T18:45:43;99934.25;;;10.93;89.46
15529;BME280;7866;52.280;9.500;2023-03-21T18:50:45;99928.44;;;10.90;89.05
15529;BME280;7866;52.280;9.500;2023-03-21T18:55:48;99918.44;;;10.83;89.57
15529;BME280;7866;52.280;9.500;2023-03-21T19:00:50;99926.66;;;10.82;89.08
15529;BME280;7866;52.280;9.500;2023-03-21T19:05:57;99922.59;;;11.01;88.88
15529;BME280;7866;52.280;9.500;2023-03-21T19:11:00;99928.16;;;10.99;87.61
15529;BME280;7866;52.280;9.500;2023-03-21T19:16:01;99920.56;;;10.88;88.39
15529;BME280;7866;52.280;9.500;2023-03-21T19:21:03;99917.34;;;10.93;88.14
15529;BME280;7866;52.280;9.500;2023-03-21T19:26:07;99916.69;;;10.91;87.02
15529;BME280;7866;52.280;9.500;2023-03-21T19:31:08;99916.88;;;10.89;86.60
15529;BME280;7866;52.280;9.500;2023-03-21T19:36:11;99920.56;;;10.88;86.41
15529;BME280;7866;52.280;9.500;2023-03-21T19:41:14;99921.03;;;10.92;86.69
15529;BME280;7866;52.280;9.500;2023-03-21T19:46:15;99920.41;;;10.90;85.95
15529;BME280;7866;52.280;9.500;2023-03-21T19:51:19;99904.69;;;10.87;86.08
15529;BME280;7866;52.280;9.500;2023-03-21T19:56:22;99915.94;;;10.82;85.75
15529;BME280;7866;52.280;9.500;2023-03-21T20:01:25;99915.56;;;10.85;85.23
15529;BME280;7866;52.280;9.500;2023-03-21T20:06:26;99905.59;;;10.79;85.16
15529;BME280;7866;52.280;9.500;2023-03-21T20:11:30;99909.28;;;10.78;85.20
15529;BME280;7866;52.280;9.500;2023-03-21T20:16:32;99898.44;;;10.71;85.58
15529;BME280;7866;52.280;9.500;2023-03-21T20:21:35;99903.94;;;10.78;84.98
15529;BME280;7866;52.280;9.500;2023-03-21T20:26:38;99914.25;;;10.81;84.57
15529;BME280;7866;52.280;9.500;2023-03-21T20:31:40;99897.91;;;10.76;84.54
15529;BME280;7866;52.280;9.500;2023-03-21T20:36:42;99909.34;;;10.70;84.85
15529;BME280;7866;52.280;9.500;2023-03-21T20:41:45;99907.31;;;10.72;84.90
15529;BME280;7866;52.280;9.500;2023-03-21T20:46:47;99907.03;;;10.67;84.18
15529;BME280;7866;52.280;9.500;2023-03-21T20:51:49;99899.69;;;10.60;84.83
15529;BME280;7866;52.280;9.500;2023-03-21T20:56:52;99891.09;;;10.50;84.31
15529;BME280;7866;52.280;9.500;2023-03-21T21:01:54;99888.84;;;10.39;85.46
15529;BME280;7866;52.280;9.500;2023-03-21T21:06:57;99896.09;;;10.53;85.11
15529;BME280;7866;52.280;9.500;2023-03-21T21:12:00;99900.72;;;10.59;84.67
15529;BME280;7866;52.280;9.500;2023-03-21T21:17:03;99891.56;;;10.54;83.74
15529;BME280;7866;52.280;9.500;2023-03-21T21:22:05;99881.56;;;10.48;84.70
15529;BME280;7866;52.280;9.500;2023-03-21T21:27:08;99885.75;;;10.50;84.10
15529;BME280;7866;52.280;9.500;2023-03-21T21:32:10;99892.00;;;10.43;84.27
15529;BME280;7866;52.280;9.500;2023-03-21T21:37:11;99889.53;;;10.33;85.02
15529;BME280;7866;52.280;9.500;2023-03-21T21:42:14;99889.53;;;10.33;84.72
15529;BME280;7866;52.280;9.500;2023-03-21T21:47:16;99883.59;;;10.23;84.72
15529;BME280;7866;52.280;9.500;2023-03-21T21:52:18;99886.59;;;10.20;85.08
15529;BME280;7866;52.280;9.500;2023-03-21T21:57:26;99885.78;;;10.19;86.01
15529;BME280;7866;52.280;9.500;2023-03-21T22:02:29;99885.75;;;10.27;85.12
15529;BME280;7866;52.280;9.500;2023-03-21T22:07:31;99872.19;;;10.29;85.41
15529;BME280;7866;52.280;9.500;2023-03-21T22:12:34;99869.06;;;10.25;85.50
15529;BME280;7866;52.280;9.500;2023-03-21T22:17:36;99854.91;;;9.85;85.50
15529;BME280;7866;52.280;9.500;2023-03-21T22:22:38;99854.53;;;9.57;86.82
15529;BME280;7866;52.280;9.500;2023-03-21T22:27:41;99852.28;;;9.69;88.14
15529;BME280;7866;52.280;9.500;2023-03-21T22:32:44;99841.69;;;9.84;86.94
15529;BME280;7866;52.280;9.500;2023-03-21T22:37:47;99850.06;;;9.81;87.13
15529;BME280;7866;52.280;9.500;2023-03-21T22:42:50;99855.41;;;9.81;86.66
15529;BME280;7866;52.280;9.500;2023-03-21T22:47:51;99852.47;;;9.68;86.54
15529;BME280;7866;52.280;9.500;2023-03-21T22:52:53;99852.63;;;9.74;86.92
15529;BME280;7866;52.280;9.500;2023-03-21T22:57:56;99854.75;;;9.79;86.85
15529;BME280;7866;52.280;9.500;2023-03-21T23:02:58;99852.97;;;9.71;86.44
15529;BME280;7866;52.280;9.500;2023-03-21T23:07:59;99850.47;;;9.70;86.67
15529;BME280;7866;52.280;9.500;2023-03-21T23:13:03;99855.13;;;9.76;86.67
15529;BME280;7866;52.280;9.500;2023-03-21T23:18:04;99850.81;;;9.67;86.83
15529;BME280;7866;52.280;9.500;2023-03-21T23:23:06;99852.03;;;9.56;86.96
15529;BME280;7866;52.280;9.500;2023-03-21T23:28:09;99853.59;;;9.50;86.86
15529;BME280;7866;52.280;9.500;2023-03-21T23:33:11;99846.00;;;9.62;87.35
15529;BME280;7866;52.280;9.500;2023-03-21T23:38:12;99836.78;;;9.65;87.00
15529;BME280;7866;52.280;9.500;2023-03-21T23:43:15;99834.28;;;9.63;86.65
15529;BME280;7866;52.280;9.500;2023-03-21T23:48:17;99829.03;;;9.78;86.38
15529;BME280;7866;52.280;9.500;2023-03-21T23:53:19;99830.22;;;9.75;85.86
15529;BME280;7866;52.280;9.500;2023-03-21T23:58:23;99828.41;;;9.68;86.52
